sensor_id;sensor_type;location;lat;lon;timestamp;P1;durP1;ratioP1;P2;durP2;ratioP2
16460;SDS011;8341;42.048;24.650;2023-07-20T00:00:15;9.43;;;6.63;;
16460;SDS011;8341;42.048;24.650;2023-07-20T00:02:42;9.73;;;6.60;;
16460;SDS011;8341;42.048;24.650;2023-07-20T00:05:12;8.93;;;6.45;;
16460;SDS011;8341;42.048;24.650;2023-07-20T00:07:39;7.22;;;6.35;;
16460;SDS011;8341;42.048;24.650;2023-07-20T00:10:06;11.13;;;6.72;;
16460;SDS011;8341;42.048;24.650;2023-07-20T00:12:34;10.68;;;6.75;;
16460;SDS011;8341;42.048;24.650;2023-07-20T00:15:01;10.30;;;6.68;;
16460;SDS011;8341;42.048;24.650;2023-07-20T00:17:28;14.32;;;6.70;;
16460;SDS011;8341;42.048;24.650;2023-07-20T00:19:55;9.43;;;6.05;;
16460;SDS011;8341;42.048;24.650;2023-07-20T00:22:23;9.13;;;6.53;;
16460;SDS011;8341;42.048;24.650;2023-07-20T00:24:51;10.27;;;6.10;;
16460;SDS011;8341;42.048;24.650;2023-07-20T00:27:18;8.02;;;5.85;;
16460;SDS011;8341;42.048;24.650;2023-07-20T00:29:45;10.10;;;5.82;;
16460;SDS011;8341;42.048;24.650;2023-07-20T00:32:12;8.70;;;5.75;;
16460;SDS011;8341;42.048;24.650;2023-07-20T00:34:39;10.40;;;5.72;;
16460;SDS011;8341;42.048;24.650;2023-07-20T00:37:06;14.80;;;5.80;;
16460;SDS011;8341;42.048;24.650;2023-07-20T00:39:34;7.88;;;5.55;;
16460;SDS011;8341;42.048;24.650;2023-07-20T00:42:01;14.20;;;5.82;;
16460;SDS011;8341;42.048;24.650;2023-07-20T00:44:29;6.90;;;5.78;;
16460;SDS011;8341;42.048;24.650;2023-07-20T00:46:56;10.18;;;5.80;;
16460;SDS011;8341;42.048;24.650;2023-07-20T00:49:23;11.38;;;5.80;;
16460;SDS011;8341;42.048;24.650;2023-07-20T00:51:50;7.50;;;5.53;;
16460;SDS011;8341;42.048;24.650;2023-07-20T00:54:17;9.70;;;6.05;;
16460;SDS011;8341;42.048;24.650;2023-07-20T00:56:46;7.40;;;5.50;;
16460;SDS011;8341;42.048;24.650;2023-07-20T00:59:13;11.30;;;5.38;;
16460;SDS011;8341;42.048;24.650;2023-07-20T01:01:40;12.82;;;5.55;;
16460;SDS011;8341;42.048;24.650;2023-07-20T01:04:08;8.40;;;5.28;;
16460;SDS011;8341;42.048;24.650;2023-07-20T01:06:36;12.18;;;5.65;;
16460;SDS011;8341;42.048;24.650;2023-07-20T01:09:12;9.18;;;5.63;;
16460;SDS011;8341;42.048;24.650;2023-07-20T01:11:43;8.23;;;5.20;;
16460;SDS011;8341;42.048;24.650;2023-07-20T01:14:19;8.10;;;5.90;;
16460;SDS011;8341;42.048;24.650;2023-07-20T01:16:46;8.73;;;5.55;;
16460;SDS011;8341;42.048;24.650;2023-07-20T01:19:14;8.65;;;5.70;;
16460;SDS011;8341;42.048;24.650;2023-07-20T01:21:42;10.20;;;5.82;;
16460;SDS011;8341;42.048;24.650;2023-07-20T01:24:32;11.20;;;5.57;;
16460;SDS011;8341;42.048;24.650;2023-07-20T01:27:44;11.80;;;5.90;;
16460;SDS011;8341;42.048;24.650;2023-07-20T01:30:43;7.80;;;6.22;;
16460;SDS011;8341;42.048;24.650;2023-07-20T01:33:17;7.97;;;6.20;;
16460;SDS011;8341;42.048;24.650;2023-07-20T01:35:47;7.93;;;5.55;;
16460;SDS011;8341;42.048;24.650;2023-07-20T01:38:17;6.88;;;5.53;;
16460;SDS011;8341;42.048;24.650;2023-07-20T01:40:46;10.35;;;5.85;;
16460;SDS011;8341;42.048;24.650;2023-07-20T01:43:13;9.27;;;6.00;;
16460;SDS011;8341;42.048;24.650;2023-07-20T01:45:41;9.90;;;5.80;;
16460;SDS011;8341;42.048;24.650;2023-07-20T01:48:08;10.25;;;6.63;;
16460;SDS011;8341;42.048;24.650;2023-07-20T01:50:36;11.80;;;6.07;;
16460;SDS011;8341;42.048;24.650;2023-07-20T01:53:03;10.27;;;6.35;;
16460;SDS011;8341;42.048;24.650;2023-07-20T01:55:30;9.80;;;6.20;;
16460;SDS011;8341;42.048;24.650;2023-07-20T01:57:57;11.02;;;6.22;;
16460;SDS011;8341;42.048;24.650;2023-07-20T02:00:25;9.57;;;6.05;;
16460;SDS011;8341;42.048;24.650;2023-07-20T02:02:52;6.88;;;6.18;;
16460;SDS011;8341;42.048;24.650;2023-07-20T02:05:19;8.93;;;6.00;;
16460;SDS011;8341;42.048;24.650;2023-07-20T02:07:47;9.55;;;6.15;;
16460;SDS011;8341;42.048;24.650;2023-07-20T02:10:15;11.25;;;5.57;;
16460;SDS011;8341;42.048;24.650;2023-07-20T02:12:42;6.72;;;5.70;;
16460;SDS011;8341;42.048;24.650;2023-07-20T02:15:09;10.07;;;6.00;;
16460;SDS011;8341;42.048;24.650;2023-07-20T02:17:38;7.47;;;5.80;;
16460;SDS011;8341;42.048;24.650;2023-07-20T02:20:06;8.85;;;6.22;;
16460;SDS011;8341;42.048;24.650;2023-07-20T02:22:35;8.15;;;6.05;;
16460;SDS011;8341;42.048;24.650;2023-07-20T02:25:05;7.32;;;5.75;;
16460;SDS011;8341;42.048;24.650;2023-07-20T02:27:33;8.48;;;5.97;;
16460;SDS011;8341;42.048;24.650;2023-07-20T02:30:00;8.25;;;6.25;;
16460;SDS011;8341;42.048;24.650;2023-07-20T02:32:28;15.45;;;12.57;;
16460;SDS011;8341;42.048;24.650;2023-07-20T02:34:56;13.07;;;11.70;;
16460;SDS011;8341;42.048;24.650;2023-07-20T02:37:24;12.55;;;8.65;;
16460;SDS011;8341;42.048;24.650;2023-07-20T02:39:51;8.77;;;6.78;;
16460;SDS011;8341;42.048;24.650;2023-07-20T02:42:19;11.27;;;6.10;;
16460;SDS011;8341;42.048;24.650;2023-07-20T02:44:48;6.85;;;6.10;;
16460;SDS011;8341;42.048;24.650;2023-07-20T02:47:15;11.30;;;7.78;;
16460;SDS011;8341;42.048;24.650;2023-07-20T02:49:42;8.82;;;7.68;;
16460;SDS011;8341;42.048;24.650;2023-07-20T02:52:09;12.18;;;8.15;;
16460;SDS011;8341;42.048;24.650;2023-07-20T02:54:36;9.57;;;7.38;;
16460;SDS011;8341;42.048;24.650;2023-07-20T02:57:03;11.82;;;9.57;;
16460;SDS011;8341;42.048;24.650;2023-07-20T02:59:32;12.30;;;7.65;;
16460;SDS011;8341;42.048;24.650;2023-07-20T03:01:59;10.02;;;8.40;;
16460;SDS011;8341;42.048;24.650;2023-07-20T03:04:26;10.00;;;7.55;;
16460;SDS011;8341;42.048;24.650;2023-07-20T03:06:53;8.95;;;6.15;;
16460;SDS011;8341;42.048;24.650;2023-07-20T03:09:20;14.10;;;6.90;;
16460;SDS011;8341;42.048;24.650;2023-07-20T03:11:48;9.40;;;7.00;;
16460;SDS011;8341;42.048;24.650;2023-07-20T03:14:16;9.13;;;6.47;;
16460;SDS011;8341;42.048;24.650;2023-07-20T03:16:44;7.88;;;6.38;;
16460;SDS011;8341;42.048;24.650;2023-07-20T03:19:12;10.35;;;6.65;;
16460;SDS011;8341;42.048;24.650;2023-07-20T03:21:39;10.80;;;6.32;;
16460;SDS011;8341;42.048;24.650;2023-07-20T03:24:06;7.15;;;6.18;;
16460;SDS011;8341;42.048;24.650;2023-07-20T03:26:34;10.27;;;6.93;;
16460;SDS011;8341;42.048;24.650;2023-07-20T03:29:02;17.45;;;7.38;;
16460;SDS011;8341;42.048;24.650;2023-07-20T03:31:30;10.63;;;6.93;;
16460;SDS011;8341;42.048;24.650;2023-07-20T03:33:59;12.40;;;7.18;;
16460;SDS011;8341;42.048;24.650;2023-07-20T03:36:26;15.52;;;6.82;;
16460;SDS011;8341;42.048;24.650;2023-07-20T03:38:53;12.93;;;6.72;;
16460;SDS011;8341;42.048;24.650;2023-07-20T03:41:20;6.70;;;6.00;;
16460;SDS011;8341;42.048;24.650;2023-07-20T03:43:47;7.82;;;6.07;;
16460;SDS011;8341;42.048;24.650;2023-07-20T03:46:14;9.55;;;6.35;;
16460;SDS011;8341;42.048;24.650;2023-07-20T03:48:41;6.97;;;5.93;;
16460;SDS011;8341;42.048;24.650;2023-07-20T03:51:10;10.23;;;5.72;;
16460;SDS011;8341;42.048;24.650;2023-07-20T03:53:37;9.73;;;6.30;;
16460;SDS011;8341;42.048;24.650;2023-07-20T03:56:05;8.38;;;6.22;;
16460;SDS011;8341;42.048;24.650;2023-07-20T03:58:32;8.80;;;6.45;;
16460;SDS011;8341;42.048;24.650;2023-07-20T04:00:59;9.75;;;6.22;;
16460;SDS011;8341;42.048;24.650;2023-07-20T04:03:26;9.45;;;5.63;;
16460;SDS011;8341;42.048;24.650;2023-07-20T04:05:53;6.78;;;6.07;;
16460;SDS011;8341;42.048;24.650;2023-07-20T04:08:23;8.77;;;6.30;;
16460;SDS011;8341;42.048;24.650;2023-07-20T04:10:50;10.20;;;6.20;;
16460;SDS011;8341;42.048;24.650;2023-07-20T04:13:18;7.45;;;6.35;;
16460;SDS011;8341;42.048;24.650;2023-07-20T04:15:45;8.20;;;6.22;;
16460;SDS011;8341;42.048;24.650;2023-07-20T04:18:12;7.47;;;5.82;;
16460;SDS011;8341;42.048;24.650;2023-07-20T04:20:40;8.65;;;6.10;;
16460;SDS011;8341;42.048;24.650;2023-07-20T04:23:07;6.50;;;5.78;;
16460;SDS011;8341;42.048;24.650;2023-07-20T04:25:35;8.60;;;6.25;;
16460;SDS011;8341;42.048;24.650;2023-07-20T04:28:05;5.80;;;5.00;;
16460;SDS011;8341;42.048;24.650;2023-07-20T04:30:35;6.60;;;5.15;;
16460;SDS011;8341;42.048;24.650;2023-07-20T04:33:02;7.82;;;4.93;;
16460;SDS011;8341;42.048;24.650;2023-07-20T04:35:46;8.52;;;5.22;;
16460;SDS011;8341;42.048;24.650;2023-07-20T04:38:15;8.63;;;5.47;;
16460;SDS011;8341;42.048;24.650;2023-07-20T04:40:44;9.70;;;5.90;;
16460;SDS011;8341;42.048;24.650;2023-07-20T04:43:12;6.93;;;5.70;;
16460;SDS011;8341;42.048;24.650;2023-07-20T04:45:39;10.00;;;5.78;;
16460;SDS011;8341;42.048;24.650;2023-07-20T04:48:08;8.48;;;5.25;;
16460;SDS011;8341;42.048;24.650;2023-07-20T04:50:40;6.55;;;5.38;;
16460;SDS011;8341;42.048;24.650;2023-07-20T04:53:08;7.43;;;5.65;;
16460;SDS011;8341;42.048;24.650;2023-07-20T04:55:36;8.48;;;5.95;;
16460;SDS011;8341;42.048;24.650;2023-07-20T04:58:04;6.65;;;5.30;;
16460;SDS011;8341;42.048;24.650;2023-07-20T05:00:32;9.63;;;6.20;;
16460;SDS011;8341;42.048;24.650;2023-07-20T05:03:00;6.75;;;6.07;;
16460;SDS011;8341;42.048;24.650;2023-07-20T05:05:30;6.70;;;6.05;;
16460;SDS011;8341;42.048;24.650;2023-07-20T05:07:57;9.40;;;6.35;;
16460;SDS011;8341;42.048;24.650;2023-07-20T05:10:24;7.75;;;5.95;;
16460;SDS011;8341;42.048;24.650;2023-07-20T05:12:51;7.60;;;6.57;;
16460;SDS011;8341;42.048;24.650;2023-07-20T05:15:20;8.88;;;6.15;;
16460;SDS011;8341;42.048;24.650;2023-07-20T05:17:47;23.13;;;6.75;;
16460;SDS011;8341;42.048;24.650;2023-07-20T05:20:15;11.82;;;6.88;;
16460;SDS011;8341;42.048;24.650;2023-07-20T05:22:42;8.07;;;6.22;;
16460;SDS011;8341;42.048;24.650;2023-07-20T05:25:10;9.35;;;5.63;;
16460;SDS011;8341;42.048;24.650;2023-07-20T05:27:38;10.48;;;6.00;;
16460;SDS011;8341;42.048;24.650;2023-07-20T05:30:06;11.65;;;6.22;;
16460;SDS011;8341;42.048;24.650;2023-07-20T05:32:35;7.85;;;6.45;;
16460;SDS011;8341;42.048;24.650;2023-07-20T05:35:02;8.43;;;6.55;;
16460;SDS011;8341;42.048;24.650;2023-07-20T05:37:29;48.88;;;8.95;;
16460;SDS011;8341;42.048;24.650;2023-07-20T05:39:57;12.70;;;7.15;;
16460;SDS011;8341;42.048;24.650;2023-07-20T05:42:24;10.95;;;7.35;;
16460;SDS011;8341;42.048;24.650;2023-07-20T05:44:51;16.00;;;7.45;;
16460;SDS011;8341;42.048;24.650;2023-07-20T05:47:19;14.95;;;7.90;;
16460;SDS011;8341;42.048;24.650;2023-07-20T05:49:48;9.35;;;7.07;;
16460;SDS011;8341;42.048;24.650;2023-07-20T05:52:15;13.70;;;7.65;;
16460;SDS011;8341;42.048;24.650;2023-07-20T05:54:42;12.85;;;7.03;;
16460;SDS011;8341;42.048;24.650;2023-07-20T05:57:09;17.98;;;7.70;;
16460;SDS011;8341;42.048;24.650;2023-07-20T05:59:36;17.05;;;8.63;;
16460;SDS011;8341;42.048;24.650;2023-07-20T06:02:06;12.95;;;7.22;;
16460;SDS011;8341;42.048;24.650;2023-07-20T06:04:33;18.42;;;7.20;;
16460;SDS011;8341;42.048;24.650;2023-07-20T06:07:01;13.88;;;6.93;;
16460;SDS011;8341;42.048;24.650;2023-07-20T06:09:29;11.65;;;7.47;;
16460;SDS011;8341;42.048;24.650;2023-07-20T06:11:57;12.85;;;6.45;;
16460;SDS011;8341;42.048;24.650;2023-07-20T06:14:24;15.43;;;7.13;;
16460;SDS011;8341;42.048;24.650;2023-07-20T06:16:51;13.50;;;7.57;;
16460;SDS011;8341;42.048;24.650;2023-07-20T06:19:18;11.13;;;6.75;;
16460;SDS011;8341;42.048;24.650;2023-07-20T06:21:45;12.57;;;7.05;;
16460;SDS011;8341;42.048;24.650;2023-07-20T06:24:13;20.15;;;7.35;;
16460;SDS011;8341;42.048;24.650;2023-07-20T06:26:40;8.73;;;6.47;;
16460;SDS011;8341;42.048;24.650;2023-07-20T06:29:07;9.80;;;6.65;;
16460;SDS011;8341;42.048;24.650;2023-07-20T06:31:35;13.05;;;7.00;;
16460;SDS011;8341;42.048;24.650;2023-07-20T06:34:03;11.57;;;6.88;;
16460;SDS011;8341;42.048;24.650;2023-07-20T06:36:30;13.45;;;7.07;;
16460;SDS011;8341;42.048;24.650;2023-07-20T06:38:57;13.52;;;7.38;;
16460;SDS011;8341;42.048;24.650;2023-07-20T06:41:26;12.57;;;6.97;;
16460;SDS011;8341;42.048;24.650;2023-07-20T06:43:53;11.32;;;7.28;;
16460;SDS011;8341;42.048;24.650;2023-07-20T06:46:23;18.63;;;7.93;;
16460;SDS011;8341;42.048;24.650;2023-07-20T06:48:51;18.83;;;8.07;;
16460;SDS011;8341;42.048;24.650;2023-07-20T06:51:18;14.85;;;7.30;;
16460;SDS011;8341;42.048;24.650;2023-07-20T06:53:46;15.18;;;8.23;;
16460;SDS011;8341;42.048;24.650;2023-07-20T06:56:13;12.85;;;7.30;;
16460;SDS011;8341;42.048;24.650;2023-07-20T06:58:42;18.73;;;7.90;;
16460;SDS011;8341;42.048;24.650;2023-07-20T07:01:09;12.82;;;7.68;;
16460;SDS011;8341;42.048;24.650;2023-07-20T07:03:36;15.82;;;8.35;;
16460;SDS011;8341;42.048;24.650;2023-07-20T07:06:03;14.40;;;8.07;;
16460;SDS011;8341;42.048;24.650;2023-07-20T07:08:30;14.68;;;7.38;;
16460;SDS011;8341;42.048;24.650;2023-07-20T07:10:58;15.75;;;7.60;;
16460;SDS011;8341;42.048;24.650;2023-07-20T07:13:25;10.60;;;8.00;;
16460;SDS011;8341;42.048;24.650;2023-07-20T07:15:53;15.65;;;6.97;;
16460;SDS011;8341;42.048;24.650;2023-07-20T07:18:21;16.48;;;6.90;;
16460;SDS011;8341;42.048;24.650;2023-07-20T07:20:51;12.90;;;7.10;;
16460;SDS011;8341;42.048;24.650;2023-07-20T07:23:19;15.60;;;7.45;;
16460;SDS011;8341;42.048;24.650;2023-07-20T07:25:46;12.63;;;6.80;;
16460;SDS011;8341;42.048;24.650;2023-07-20T07:28:14;11.80;;;7.15;;
16460;SDS011;8341;42.048;24.650;2023-07-20T07:30:42;11.93;;;7.07;;
16460;SDS011;8341;42.048;24.650;2023-07-20T07:33:11;12.13;;;6.80;;
16460;SDS011;8341;42.048;24.650;2023-07-20T07:35:38;13.23;;;6.40;;
16460;SDS011;8341;42.048;24.650;2023-07-20T07:38:05;14.80;;;7.15;;
16460;SDS011;8341;42.048;24.650;2023-07-20T07:40:33;10.35;;;7.20;;
16460;SDS011;8341;42.048;24.650;2023-07-20T07:43:00;11.60;;;6.88;;
16460;SDS011;8341;42.048;24.650;2023-07-20T07:45:27;10.50;;;7.20;;
16460;SDS011;8341;42.048;24.650;2023-07-20T07:47:54;10.55;;;7.15;;
16460;SDS011;8341;42.048;24.650;2023-07-20T07:50:23;11.43;;;7.55;;
16460;SDS011;8341;42.048;24.650;2023-07-20T07:52:50;13.95;;;6.85;;
16460;SDS011;8341;42.048;24.650;2023-07-20T07:55:17;12.00;;;7.50;;
16460;SDS011;8341;42.048;24.650;2023-07-20T07:57:44;14.50;;;7.15;;
16460;SDS011;8341;42.048;24.650;2023-07-20T08:00:13;9.20;;;7.20;;
16460;SDS011;8341;42.048;24.650;2023-07-20T08:02:44;12.13;;;7.20;;
16460;SDS011;8341;42.048;24.650;2023-07-20T08:05:11;12.55;;;7.30;;
16460;SDS011;8341;42.048;24.650;2023-07-20T08:07:40;13.95;;;7.13;;
16460;SDS011;8341;42.048;24.650;2023-07-20T08:10:08;14.10;;;7.80;;
16460;SDS011;8341;42.048;24.650;2023-07-20T08:12:36;10.63;;;7.32;;
16460;SDS011;8341;42.048;24.650;2023-07-20T08:15:03;11.45;;;7.03;;
16460;SDS011;8341;42.048;24.650;2023-07-20T08:17:31;11.43;;;7.28;;
16460;SDS011;8341;42.048;24.650;2023-07-20T08:19:58;9.70;;;7.43;;
16460;SDS011;8341;42.048;24.650;2023-07-20T08:22:25;13.07;;;7.95;;
16460;SDS011;8341;42.048;24.650;2023-07-20T08:24:54;11.40;;;6.88;;
16460;SDS011;8341;42.048;24.650;2023-07-20T08:27:21;10.50;;;7.35;;
16460;SDS011;8341;42.048;24.650;2023-07-20T08:29:49;10.48;;;7.43;;
16460;SDS011;8341;42.048;24.650;2023-07-20T08:32:16;8.95;;;7.22;;
16460;SDS011;8341;42.048;24.650;2023-07-20T08:34:43;9.60;;;7.57;;
16460;SDS011;8341;42.048;24.650;2023-07-20T08:37:11;11.77;;;7.60;;
16460;SDS011;8341;42.048;24.650;2023-07-20T08:39:38;10.15;;;7.00;;
16460;SDS011;8341;42.048;24.650;2023-07-20T08:42:07;11.82;;;7.75;;
16460;SDS011;8341;42.048;24.650;2023-07-20T08:44:35;13.68;;;7.30;;
16460;SDS011;8341;42.048;24.650;2023-07-20T08:47:04;10.90;;;7.45;;
16460;SDS011;8341;42.048;24.650;2023-07-20T08:49:33;9.77;;;7.40;;
16460;SDS011;8341;42.048;24.650;2023-07-20T08:52:02;8.32;;;7.53;;
16460;SDS011;8341;42.048;24.650;2023-07-20T08:54:31;9.75;;;7.53;;
16460;SDS011;8341;42.048;24.650;2023-07-20T08:57:01;13.07;;;7.70;;
16460;SDS011;8341;42.048;24.650;2023-07-20T08:59:30;10.63;;;7.90;;
16460;SDS011;8341;42.048;24.650;2023-07-20T09:01:58;10.43;;;7.55;;
16460;SDS011;8341;42.048;24.650;2023-07-20T09:04:26;8.73;;;7.65;;
16460;SDS011;8341;42.048;24.650;2023-07-20T09:07:01;12.80;;;7.82;;
16460;SDS011;8341;42.048;24.650;2023-07-20T09:09:28;11.65;;;8.07;;
16460;SDS011;8341;42.048;24.650;2023-07-20T09:11:55;13.18;;;7.80;;
16460;SDS011;8341;42.048;24.650;2023-07-20T09:14:23;13.77;;;7.90;;
16460;SDS011;8341;42.048;24.650;2023-07-20T09:16:52;11.15;;;7.47;;
16460;SDS011;8341;42.048;24.650;2023-07-20T09:19:20;13.07;;;7.75;;
16460;SDS011;8341;42.048;24.650;2023-07-20T09:21:48;12.05;;;8.02;;
16460;SDS011;8341;42.048;24.650;2023-07-20T09:24:17;10.63;;;7.88;;
16460;SDS011;8341;42.048;24.650;2023-07-20T09:26:45;12.50;;;8.35;;
16460;SDS011;8341;42.048;24.650;2023-07-20T09:29:14;15.57;;;7.60;;
16460;SDS011;8341;42.048;24.650;2023-07-20T09:31:44;10.93;;;8.30;;
16460;SDS011;8341;42.048;24.650;2023-07-20T09:34:27;12.07;;;7.63;;
16460;SDS011;8341;42.048;24.650;2023-07-20T09:36:55;13.05;;;7.88;;
16460;SDS011;8341;42.048;24.650;2023-07-20T09:39:22;11.77;;;7.85;;
16460;SDS011;8341;42.048;24.650;2023-07-20T09:41:50;18.00;;;7.70;;
16460;SDS011;8341;42.048;24.650;2023-07-20T09:44:17;13.88;;;7.80;;
16460;SDS011;8341;42.048;24.650;2023-07-20T09:46:45;11.38;;;7.95;;
16460;SDS011;8341;42.048;24.650;2023-07-20T09:49:14;11.85;;;8.00;;
16460;SDS011;8341;42.048;24.650;2023-07-20T09:51:44;14.30;;;7.90;;
16460;SDS011;8341;42.048;24.650;2023-07-20T09:54:13;11.05;;;7.47;;
16460;SDS011;8341;42.048;24.650;2023-07-20T09:56:40;10.57;;;7.18;;
16460;SDS011;8341;42.048;24.650;2023-07-20T09:59:08;10.32;;;7.65;;
16460;SDS011;8341;42.048;24.650;2023-07-20T10:01:35;10.23;;;8.00;;
16460;SDS011;8341;42.048;24.650;2023-07-20T10:04:04;10.05;;;7.40;;
16460;SDS011;8341;42.048;24.650;2023-07-20T10:06:37;9.70;;;7.80;;
16460;SDS011;8341;42.048;24.650;2023-07-20T10:09:08;13.43;;;7.75;;
16460;SDS011;8341;42.048;24.650;2023-07-20T10:11:40;12.45;;;7.32;;
16460;SDS011;8341;42.048;24.650;2023-07-20T10:14:16;10.07;;;7.20;;
16460;SDS011;8341;42.048;24.650;2023-07-20T10:16:48;11.77;;;7.13;;
16460;SDS011;8341;42.048;24.650;2023-07-20T10:19:21;12.02;;;7.40;;
16460;SDS011;8341;42.048;24.650;2023-07-20T10:21:57;11.90;;;7.50;;
16460;SDS011;8341;42.048;24.650;2023-07-20T10:24:30;8.85;;;7.57;;
16460;SDS011;8341;42.048;24.650;2023-07-20T10:26:59;9.35;;;7.55;;
16460;SDS011;8341;42.048;24.650;2023-07-20T10:29:26;10.10;;;7.32;;
16460;SDS011;8341;42.048;24.650;2023-07-20T10:31:54;10.30;;;6.95;;
16460;SDS011;8341;42.048;24.650;2023-07-20T10:34:22;10.65;;;7.38;;
16460;SDS011;8341;42.048;24.650;2023-07-20T10:36:49;11.45;;;7.70;;
16460;SDS011;8341;42.048;24.650;2023-07-20T10:39:26;9.48;;;7.32;;
16460;SDS011;8341;42.048;24.650;2023-07-20T10:42:00;11.80;;;7.45;;
16460;SDS011;8341;42.048;24.650;2023-07-20T10:44:28;12.30;;;7.30;;
16460;SDS011;8341;42.048;24.650;2023-07-20T10:46:59;10.85;;;7.32;;
16460;SDS011;8341;42.048;24.650;2023-07-20T10:49:26;10.75;;;7.22;;
16460;SDS011;8341;42.048;24.650;2023-07-20T10:51:57;10.98;;;7.25;;
16460;SDS011;8341;42.048;24.650;2023-07-20T10:57:22;11.50;;;7.53;;
16460;SDS011;8341;42.048;24.650;2023-07-20T10:59:51;11.00;;;7.75;;
16460;SDS011;8341;42.048;24.650;2023-07-20T11:02:18;14.00;;;7.68;;
16460;SDS011;8341;42.048;24.650;2023-07-20T11:04:46;9.07;;;7.60;;
16460;SDS011;8341;42.048;24.650;2023-07-20T11:07:17;11.32;;;7.40;;
16460;SDS011;8341;42.048;24.650;2023-07-20T11:09:45;9.10;;;7.40;;
16460;SDS011;8341;42.048;24.650;2023-07-20T11:12:14;9.77;;;7.55;;
16460;SDS011;8341;42.048;24.650;2023-07-20T11:14:44;8.30;;;7.55;;
16460;SDS011;8341;42.048;24.650;2023-07-20T11:17:22;10.00;;;7.50;;
16460;SDS011;8341;42.048;24.650;2023-07-20T11:19:55;11.60;;;7.10;;
16460;SDS011;8341;42.048;24.650;2023-07-20T11:22:23;9.90;;;6.70;;
16460;SDS011;8341;42.048;24.650;2023-07-20T11:24:50;10.45;;;7.10;;
16460;SDS011;8341;42.048;24.650;2023-07-20T11:27:18;9.25;;;6.38;;
16460;SDS011;8341;42.048;24.650;2023-07-20T11:29:47;10.82;;;6.95;;
16460;SDS011;8341;42.048;24.650;2023-07-20T11:32:19;7.93;;;6.07;;
16460;SDS011;8341;42.048;24.650;2023-07-20T11:34:47;10.98;;;6.47;;
16460;SDS011;8341;42.048;24.650;2023-07-20T11:37:15;6.97;;;6.28;;
16460;SDS011;8341;42.048;24.650;2023-07-20T11:39:42;10.82;;;5.88;;
16460;SDS011;8341;42.048;24.650;2023-07-20T11:42:09;8.38;;;6.07;;
16460;SDS011;8341;42.048;24.650;2023-07-20T11:44:37;8.60;;;6.32;;
16460;SDS011;8341;42.048;24.650;2023-07-20T11:47:05;10.35;;;5.68;;
16460;SDS011;8341;42.048;24.650;2023-07-20T11:49:36;14.05;;;5.82;;
16460;SDS011;8341;42.048;24.650;2023-07-20T11:52:04;8.57;;;5.90;;
16460;SDS011;8341;42.048;24.650;2023-07-20T11:54:33;10.18;;;6.30;;
16460;SDS011;8341;42.048;24.650;2023-07-20T11:57:00;9.05;;;5.82;;
16460;SDS011;8341;42.048;24.650;2023-07-20T11:59:27;11.20;;;6.10;;
16460;SDS011;8341;42.048;24.650;2023-07-20T12:01:57;8.57;;;5.97;;
16460;SDS011;8341;42.048;24.650;2023-07-20T12:04:25;10.90;;;6.25;;
16460;SDS011;8341;42.048;24.650;2023-07-20T12:06:53;10.18;;;6.10;;
16460;SDS011;8341;42.048;24.650;2023-07-20T12:09:20;10.18;;;5.85;;
16460;SDS011;8341;42.048;24.650;2023-07-20T12:11:48;6.53;;;5.55;;
16460;SDS011;8341;42.048;24.650;2023-07-20T12:14:16;7.55;;;5.55;;
16460;SDS011;8341;42.048;24.650;2023-07-20T12:16:43;10.60;;;6.13;;
16460;SDS011;8341;42.048;24.650;2023-07-20T12:19:12;7.65;;;5.70;;
16460;SDS011;8341;42.048;24.650;2023-07-20T12:21:40;10.40;;;5.78;;
16460;SDS011;8341;42.048;24.650;2023-07-20T12:24:07;9.80;;;6.13;;
16460;SDS011;8341;42.048;24.650;2023-07-20T12:26:36;14.73;;;6.00;;
16460;SDS011;8341;42.048;24.650;2023-07-20T12:29:03;13.13;;;6.35;;
16460;SDS011;8341;42.048;24.650;2023-07-20T12:31:30;10.15;;;5.82;;
16460;SDS011;8341;42.048;24.650;2023-07-20T12:34:02;11.45;;;5.70;;
16460;SDS011;8341;42.048;24.650;2023-07-20T12:36:30;11.90;;;5.93;;
16460;SDS011;8341;42.048;24.650;2023-07-20T12:38:57;9.52;;;5.00;;
16460;SDS011;8341;42.048;24.650;2023-07-20T12:41:26;10.15;;;5.20;;
16460;SDS011;8341;42.048;24.650;2023-07-20T12:43:53;9.13;;;4.70;;
16460;SDS011;8341;42.048;24.650;2023-07-20T12:46:22;10.25;;;4.78;;
16460;SDS011;8341;42.048;24.650;2023-07-20T12:48:50;8.82;;;4.70;;
16460;SDS011;8341;42.048;24.650;2023-07-20T12:51:17;8.05;;;4.65;;
16460;SDS011;8341;42.048;24.650;2023-07-20T12:53:45;10.68;;;4.40;;
16460;SDS011;8341;42.048;24.650;2023-07-20T12:56:11;7.25;;;4.78;;
16460;SDS011;8341;42.048;24.650;2023-07-20T12:58:38;7.45;;;5.07;;
16460;SDS011;8341;42.048;24.650;2023-07-20T13:01:05;9.25;;;5.15;;
16460;SDS011;8341;42.048;24.650;2023-07-20T13:03:32;11.02;;;4.72;;
16460;SDS011;8341;42.048;24.650;2023-07-20T13:05:59;7.53;;;4.50;;
16460;SDS011;8341;42.048;24.650;2023-07-20T13:08:26;12.05;;;4.95;;
16460;SDS011;8341;42.048;24.650;2023-07-20T13:10:54;9.85;;;4.63;;
16460;SDS011;8341;42.048;24.650;2023-07-20T13:13:20;8.55;;;4.65;;
16460;SDS011;8341;42.048;24.650;2023-07-20T13:15:47;9.73;;;4.85;;
16460;SDS011;8341;42.048;24.650;2023-07-20T13:18:15;8.52;;;5.05;;
16460;SDS011;8341;42.048;24.650;2023-07-20T13:20:41;9.30;;;5.15;;
16460;SDS011;8341;42.048;24.650;2023-07-20T13:23:08;10.35;;;5.53;;
16460;SDS011;8341;42.048;24.650;2023-07-20T13:25:35;8.13;;;5.38;;
16460;SDS011;8341;42.048;24.650;2023-07-20T13:28:04;11.15;;;5.65;;
16460;SDS011;8341;42.048;24.650;2023-07-20T13:30:31;10.40;;;5.82;;
16460;SDS011;8341;42.048;24.650;2023-07-20T13:32:58;12.57;;;5.43;;
16460;SDS011;8341;42.048;24.650;2023-07-20T13:35:25;14.02;;;5.85;;
16460;SDS011;8341;42.048;24.650;2023-07-20T13:37:52;9.07;;;6.10;;
16460;SDS011;8341;42.048;24.650;2023-07-20T13:40:19;11.93;;;6.82;;
16460;SDS011;8341;42.048;24.650;2023-07-20T13:42:47;9.38;;;6.07;;
16460;SDS011;8341;42.048;24.650;2023-07-20T13:45:15;8.20;;;6.30;;
16460;SDS011;8341;42.048;24.650;2023-07-20T13:47:42;10.27;;;6.63;;
16460;SDS011;8341;42.048;24.650;2023-07-20T13:50:10;7.93;;;6.35;;
16460;SDS011;8341;42.048;24.650;2023-07-20T13:52:36;9.60;;;6.68;;
16460;SDS011;8341;42.048;24.650;2023-07-20T13:55:03;11.65;;;6.65;;
16460;SDS011;8341;42.048;24.650;2023-07-20T13:57:30;12.10;;;7.13;;
16460;SDS011;8341;42.048;24.650;2023-07-20T13:59:57;16.38;;;7.65;;
16460;SDS011;8341;42.048;24.650;2023-07-20T14:02:26;13.13;;;7.18;;
16460;SDS011;8341;42.048;24.650;2023-07-20T14:04:53;8.20;;;6.85;;
16460;SDS011;8341;42.048;24.650;2023-07-20T14:07:21;10.45;;;6.60;;
16460;SDS011;8341;42.048;24.650;2023-07-20T14:09:48;9.45;;;5.95;;
16460;SDS011;8341;42.048;24.650;2023-07-20T14:12:15;8.40;;;6.43;;
16460;SDS011;8341;42.048;24.650;2023-07-20T14:14:42;10.05;;;7.07;;
16460;SDS011;8341;42.048;24.650;2023-07-20T14:17:08;14.98;;;6.57;;
16460;SDS011;8341;42.048;24.650;2023-07-20T14:19:37;10.18;;;6.78;;
16460;SDS011;8341;42.048;24.650;2023-07-20T14:22:04;9.32;;;6.75;;
16460;SDS011;8341;42.048;24.650;2023-07-20T14:24:31;10.43;;;6.25;;
16460;SDS011;8341;42.048;24.650;2023-07-20T14:26:58;12.07;;;5.80;;
16460;SDS011;8341;42.048;24.650;2023-07-20T14:29:25;10.18;;;5.57;;
16460;SDS011;8341;42.048;24.650;2023-07-20T14:31:56;13.38;;;6.10;;
16460;SDS011;8341;42.048;24.650;2023-07-20T14:34:23;10.00;;;5.80;;
16460;SDS011;8341;42.048;24.650;2023-07-20T14:36:51;10.43;;;5.97;;
16460;SDS011;8341;42.048;24.650;2023-07-20T14:39:18;11.40;;;6.35;;
16460;SDS011;8341;42.048;24.650;2023-07-20T14:41:45;9.10;;;6.18;;
16460;SDS011;8341;42.048;24.650;2023-07-20T14:44:12;7.75;;;5.88;;
16460;SDS011;8341;42.048;24.650;2023-07-20T14:46:39;8.32;;;5.75;;
16460;SDS011;8341;42.048;24.650;2023-07-20T14:49:06;11.73;;;5.68;;